West City, Illinois
Current Conditions -  °F | °C
As of 12:50 AM on Friday 19 Dec 2014 (Local Time) from KMWA Reporting Station
Haze Haze  
Wind Chill: 30°   Ceiling: 4600
Heat Index: 30°   Visibility: 5mi
Dew Point: 28°   Wind: 0mph
Humidity: 93%   Direction: NA
Pressure: 30.29"   Gusts: NA
Location:  38.0175°N, 88.9351°W
Report Text: KMWA 190650Z AUTO 00000KT 5SM BR OVC046 M01/M02 A3029 RMK AO2
Loading
Personal Weather Stations






























Interactive Weather Map New forecast layout! Learn more

10-Day Weather Forecast

Advertisements
Track Severe Weather on mobile